sensor_id;sensor_type;location;lat;lon;timestamp;pressure;altitude;pressure_sealevel;temperature;humidity
550;BME280;20066;48.764;9.176;2023-11-18T00:00:10;99054.91;;;8.12;75.25
550;BME280;20066;48.764;9.176;2023-11-18T00:02:40;99058.97;;;8.69;73.48
550;BME280;20066;48.764;9.176;2023-11-18T00:05:10;99051.09;;;8.96;71.86
550;BME280;20066;48.764;9.176;2023-11-18T00:07:38;99054.75;;;9.42;70.20
550;BME280;20066;48.764;9.176;2023-11-18T00:10:08;99061.38;;;9.28;70.13
550;BME280;20066;48.764;9.176;2023-11-18T00:12:35;99065.25;;;8.93;71.93
550;BME280;20066;48.764;9.176;2023-11-18T00:15:05;99057.25;;;8.45;74.01
550;BME280;20066;48.764;9.176;2023-11-18T00:17:35;99060.09;;;8.52;74.76
550;BME280;20066;48.764;9.176;2023-11-18T00:20:04;99059.19;;;9.15;71.91
550;BME280;20066;48.764;9.176;2023-11-18T00:22:36;99055.97;;;7.80;77.21
550;BME280;20066;48.764;9.176;2023-11-18T00:25:04;99050.03;;;8.02;76.00
550;BME280;20066;48.764;9.176;2023-11-18T00:27:35;99053.72;;;8.10;74.56
550;BME280;20066;48.764;9.176;2023-11-18T00:30:04;99051.88;;;8.14;74.77
550;BME280;20066;48.764;9.176;2023-11-18T00:32:35;99054.22;;;8.31;74.22
550;BME280;20066;48.764;9.176;2023-11-18T00:35:06;99040.31;;;9.11;71.64
550;BME280;20066;48.764;9.176;2023-11-18T00:37:35;99053.91;;;9.57;69.65
550;BME280;20066;48.764;9.176;2023-11-18T00:40:04;99055.75;;;9.34;69.43
550;BME280;20066;48.764;9.176;2023-11-18T00:42:34;99056.84;;;8.94;70.93
550;BME280;20066;48.764;9.176;2023-11-18T00:45:03;99051.34;;;8.56;73.14
550;BME280;20066;48.764;9.176;2023-11-18T00:47:31;99054.59;;;9.15;71.99
550;BME280;20066;48.764;9.176;2023-11-18T00:49:59;99051.97;;;9.19;70.93
550;BME280;20066;48.764;9.176;2023-11-18T00:52:28;99054.16;;;8.94;72.65
550;BME280;20066;48.764;9.176;2023-11-18T00:54:56;99056.00;;;8.74;73.46
550;BME280;20066;48.764;9.176;2023-11-18T00:57:25;99051.22;;;8.33;74.93
550;BME280;20066;48.764;9.176;2023-11-18T00:59:54;99051.09;;;8.45;74.04
550;BME280;20066;48.764;9.176;2023-11-18T01:02:22;99047.63;;;8.44;74.57
550;BME280;20066;48.764;9.176;2023-11-18T01:04:50;99049.47;;;9.26;71.25
550;BME280;20066;48.764;9.176;2023-11-18T01:07:18;99052.84;;;9.61;69.34
550;BME280;20066;48.764;9.176;2023-11-18T01:09:46;99055.13;;;9.82;68.48
550;BME280;20066;48.764;9.176;2023-11-18T01:12:15;99056.94;;;9.55;69.67
550;BME280;20066;48.764;9.176;2023-11-18T01:14:43;99048.31;;;9.08;70.70
550;BME280;20066;48.764;9.176;2023-11-18T01:17:12;99055.13;;;8.86;70.71
550;BME280;20066;48.764;9.176;2023-11-18T01:19:40;99059.31;;;8.68;71.08
550;BME280;20066;48.764;9.176;2023-11-18T01:22:08;99059.63;;;7.88;74.51
550;BME280;20066;48.764;9.176;2023-11-18T01:24:38;99058.47;;;7.73;73.74
550;BME280;20066;48.764;9.176;2023-11-18T01:27:06;99058.78;;;8.62;71.77
550;BME280;20066;48.764;9.176;2023-11-18T01:29:36;99063.69;;;8.91;70.58
550;BME280;20066;48.764;9.176;2023-11-18T01:32:05;99069.69;;;8.69;71.06
550;BME280;20066;48.764;9.176;2023-11-18T01:34:37;99071.13;;;9.37;69.04
550;BME280;20066;48.764;9.176;2023-11-18T01:37:06;99073.88;;;9.79;68.16
550;BME280;20066;48.764;9.176;2023-11-18T01:39:36;99078.16;;;9.41;69.71
550;BME280;20066;48.764;9.176;2023-11-18T01:42:04;99088.97;;;9.64;69.06
550;BME280;20066;48.764;9.176;2023-11-18T01:44:32;99083.34;;;9.15;71.13
550;BME280;20066;48.764;9.176;2023-11-18T01:47:02;99087.34;;;8.54;72.23
550;BME280;20066;48.764;9.176;2023-11-18T01:49:34;99083.34;;;8.17;73.27
550;BME280;20066;48.764;9.176;2023-11-18T01:52:06;99080.03;;;7.92;74.65
550;BME280;20066;48.764;9.176;2023-11-18T01:54:36;99080.88;;;7.53;76.29
550;BME280;20066;48.764;9.176;2023-11-18T01:57:05;99070.66;;;7.03;79.00
550;BME280;20066;48.764;9.176;2023-11-18T01:59:37;99074.09;;;7.43;78.25
550;BME280;20066;48.764;9.176;2023-11-18T02:02:07;99075.63;;;7.84;75.97
550;BME280;20066;48.764;9.176;2023-11-18T02:04:35;99070.13;;;8.56;72.74
550;BME280;20066;48.764;9.176;2023-11-18T02:07:03;99074.53;;;8.48;71.94
550;BME280;20066;48.764;9.176;2023-11-18T02:09:38;99064.78;;;6.85;78.11
550;BME280;20066;48.764;9.176;2023-11-18T02:12:15;99069.50;;;7.99;75.21
550;BME280;20066;48.764;9.176;2023-11-18T02:14:44;99068.06;;;8.18;72.93
550;BME280;20066;48.764;9.176;2023-11-18T02:17:14;99073.66;;;8.44;72.09
550;BME280;20066;48.764;9.176;2023-11-18T02:19:42;99077.22;;;8.48;72.01
550;BME280;20066;48.764;9.176;2023-11-18T02:22:11;99074.63;;;8.36;72.53
550;BME280;20066;48.764;9.176;2023-11-18T02:24:41;99077.91;;;8.45;71.48
550;BME280;20066;48.764;9.176;2023-11-18T02:27:11;99069.50;;;7.56;73.39
550;BME280;20066;48.764;9.176;2023-11-18T02:29:42;99061.06;;;7.69;73.81
550;BME280;20066;48.764;9.176;2023-11-18T02:32:17;99075.25;;;7.70;73.86
550;BME280;20066;48.764;9.176;2023-11-18T02:34:58;99065.69;;;8.63;71.11
550;BME280;20066;48.764;9.176;2023-11-18T02:37:29;99073.31;;;8.45;70.74
550;BME280;20066;48.764;9.176;2023-11-18T02:40:03;99081.09;;;8.35;70.97
550;BME280;20066;48.764;9.176;2023-11-18T02:42:36;99075.31;;;8.01;72.76
550;BME280;20066;48.764;9.176;2023-11-18T02:45:07;99079.31;;;7.52;75.23
550;BME280;20066;48.764;9.176;2023-11-18T02:47:39;99082.22;;;8.81;70.88
550;BME280;20066;48.764;9.176;2023-11-18T02:50:07;99078.41;;;8.66;70.91
550;BME280;20066;48.764;9.176;2023-11-18T02:52:38;99073.81;;;8.82;70.70
550;BME280;20066;48.764;9.176;2023-11-18T02:55:07;99063.88;;;8.04;72.61
550;BME280;20066;48.764;9.176;2023-11-18T02:57:36;99057.06;;;9.05;70.27
550;BME280;20066;48.764;9.176;2023-11-18T03:00:06;99057.47;;;7.77;73.96
550;BME280;20066;48.764;9.176;2023-11-18T03:02:38;99050.56;;;7.49;75.97
550;BME280;20066;48.764;9.176;2023-11-18T03:05:07;99054.19;;;7.56;75.18
550;BME280;20066;48.764;9.176;2023-11-18T03:07:38;99052.72;;;7.71;75.08
550;BME280;20066;48.764;9.176;2023-11-18T03:10:07;99056.56;;;8.33;73.28
550;BME280;20066;48.764;9.176;2023-11-18T03:12:39;99060.22;;;8.91;70.18
550;BME280;20066;48.764;9.176;2023-11-18T03:15:08;99056.41;;;9.11;69.07
550;BME280;20066;48.764;9.176;2023-11-18T03:17:36;99054.53;;;9.12;69.51
550;BME280;20066;48.764;9.176;2023-11-18T03:20:05;99059.53;;;8.94;69.96
550;BME280;20066;48.764;9.176;2023-11-18T03:22:38;99052.22;;;8.44;71.31
550;BME280;20066;48.764;9.176;2023-11-18T03:25:07;99063.34;;;7.83;73.78
550;BME280;20066;48.764;9.176;2023-11-18T03:27:35;99059.66;;;8.50;71.74
550;BME280;20066;48.764;9.176;2023-11-18T03:30:06;99061.03;;;8.29;71.52
550;BME280;20066;48.764;9.176;2023-11-18T03:32:34;99067.16;;;7.98;73.90
550;BME280;20066;48.764;9.176;2023-11-18T03:35:03;99052.28;;;8.79;70.27
550;BME280;20066;48.764;9.176;2023-11-18T03:37:36;99062.25;;;8.63;70.69
550;BME280;20066;48.764;9.176;2023-11-18T03:40:07;99069.16;;;7.85;73.82
550;BME280;20066;48.764;9.176;2023-11-18T03:42:35;99060.81;;;7.74;72.78
550;BME280;20066;48.764;9.176;2023-11-18T03:45:06;99071.25;;;8.23;72.59
550;BME280;20066;48.764;9.176;2023-11-18T03:47:33;99069.84;;;8.76;69.91
550;BME280;20066;48.764;9.176;2023-11-18T03:50:01;99073.09;;;9.20;68.33
550;BME280;20066;48.764;9.176;2023-11-18T03:52:29;99072.50;;;9.46;67.58
550;BME280;20066;48.764;9.176;2023-11-18T03:54:57;99081.69;;;9.45;67.51
550;BME280;20066;48.764;9.176;2023-11-18T03:57:25;99071.56;;;9.58;67.26
550;BME280;20066;48.764;9.176;2023-11-18T03:59:53;99070.00;;;9.38;67.98
550;BME280;20066;48.764;9.176;2023-11-18T04:02:22;99070.50;;;9.43;67.86
550;BME280;20066;48.764;9.176;2023-11-18T04:04:51;99067.81;;;9.62;67.13
550;BME280;20066;48.764;9.176;2023-11-18T04:07:19;99067.59;;;9.52;67.19
550;BME280;20066;48.764;9.176;2023-11-18T04:09:48;99065.31;;;8.96;68.46
550;BME280;20066;48.764;9.176;2023-11-18T04:12:16;99060.03;;;9.19;69.00
550;BME280;20066;48.764;9.176;2023-11-18T04:14:43;99070.72;;;9.35;68.07
550;BME280;20066;48.764;9.176;2023-11-18T04:17:11;99075.47;;;8.87;69.61
550;BME280;20066;48.764;9.176;2023-11-18T04:19:41;99063.13;;;8.35;71.96
550;BME280;20066;48.764;9.176;2023-11-18T04:22:09;99075.50;;;8.40;72.61
550;BME280;20066;48.764;9.176;2023-11-18T04:24:37;99073.16;;;8.70;71.10
550;BME280;20066;48.764;9.176;2023-11-18T04:27:05;99075.78;;;9.01;69.76
550;BME280;20066;48.764;9.176;2023-11-18T04:29:33;99076.44;;;8.79;70.18
550;BME280;20066;48.764;9.176;2023-11-18T04:32:03;99075.56;;;8.59;70.41
550;BME280;20066;48.764;9.176;2023-11-18T04:34:31;99072.72;;;8.21;72.04
550;BME280;20066;48.764;9.176;2023-11-18T04:37:01;99073.31;;;8.14;71.92
550;BME280;20066;48.764;9.176;2023-11-18T04:39:28;99070.31;;;8.47;70.83
550;BME280;20066;48.764;9.176;2023-11-18T04:41:58;99069.97;;;8.48;69.90
550;BME280;20066;48.764;9.176;2023-11-18T04:44:27;99072.81;;;8.56;69.88
550;BME280;20066;48.764;9.176;2023-11-18T04:46:57;99062.75;;;8.84;69.11
550;BME280;20066;48.764;9.176;2023-11-18T04:49:26;99070.38;;;8.19;70.74
550;BME280;20066;48.764;9.176;2023-11-18T04:51:54;99070.03;;;8.21;70.48
550;BME280;20066;48.764;9.176;2023-11-18T04:54:23;99063.81;;;8.32;71.03
550;BME280;20066;48.764;9.176;2023-11-18T04:56:51;99066.41;;;8.44;69.71
550;BME280;20066;48.764;9.176;2023-11-18T04:59:19;99069.34;;;8.71;68.90
550;BME280;20066;48.764;9.176;2023-11-18T05:01:47;99074.00;;;8.42;70.03
550;BME280;20066;48.764;9.176;2023-11-18T05:04:15;99074.66;;;7.76;71.73
550;BME280;20066;48.764;9.176;2023-11-18T05:06:43;99062.41;;;7.91;71.89
550;BME280;20066;48.764;9.176;2023-11-18T05:09:11;99067.16;;;7.54;71.51
550;BME280;20066;48.764;9.176;2023-11-18T05:11:40;99059.69;;;7.75;71.75
550;BME280;20066;48.764;9.176;2023-11-18T05:14:08;99058.09;;;6.91;74.39
550;BME280;20066;48.764;9.176;2023-11-18T05:16:37;99064.38;;;7.79;71.87
550;BME280;20066;48.764;9.176;2023-11-18T05:19:06;99060.91;;;7.50;72.41
550;BME280;20066;48.764;9.176;2023-11-18T05:21:34;99063.97;;;7.09;73.68
550;BME280;20066;48.764;9.176;2023-11-18T05:24:03;99063.13;;;7.60;71.87
550;BME280;20066;48.764;9.176;2023-11-18T05:26:31;99060.69;;;7.55;71.30
550;BME280;20066;48.764;9.176;2023-11-18T05:29:03;99063.44;;;7.87;71.11
550;BME280;20066;48.764;9.176;2023-11-18T05:31:32;99056.19;;;8.19;69.98
550;BME280;20066;48.764;9.176;2023-11-18T05:34:01;99059.50;;;8.28;69.55
550;BME280;20066;48.764;9.176;2023-11-18T05:36:30;99067.09;;;8.10;69.54
550;BME280;20066;48.764;9.176;2023-11-18T05:39:04;99055.66;;;7.97;71.30
550;BME280;20066;48.764;9.176;2023-11-18T05:41:33;99053.00;;;7.97;70.80
550;BME280;20066;48.764;9.176;2023-11-18T05:44:03;99050.06;;;7.87;70.75
550;BME280;20066;48.764;9.176;2023-11-18T05:46:32;99061.72;;;8.41;69.35
550;BME280;20066;48.764;9.176;2023-11-18T05:49:02;99059.41;;;8.40;68.97
550;BME280;20066;48.764;9.176;2023-11-18T05:51:34;99058.28;;;8.41;69.07
550;BME280;20066;48.764;9.176;2023-11-18T05:54:02;99055.84;;;8.36;69.29
550;BME280;20066;48.764;9.176;2023-11-18T05:56:30;99047.97;;;8.27;69.19
550;BME280;20066;48.764;9.176;2023-11-18T05:58:58;99046.97;;;8.16;69.33
550;BME280;20066;48.764;9.176;2023-11-18T06:01:30;99049.09;;;8.26;68.67
550;BME280;20066;48.764;9.176;2023-11-18T06:03:58;99042.19;;;7.50;71.95
550;BME280;20066;48.764;9.176;2023-11-18T06:06:27;99038.50;;;7.55;71.65
550;BME280;20066;48.764;9.176;2023-11-18T06:08:55;99039.84;;;7.76;70.76
550;BME280;20066;48.764;9.176;2023-11-18T06:11:31;99040.97;;;7.75;70.78
550;BME280;20066;48.764;9.176;2023-11-18T06:13:59;99043.63;;;7.75;70.76
550;BME280;20066;48.764;9.176;2023-11-18T06:16:27;99038.72;;;7.77;70.72
550;BME280;20066;48.764;9.176;2023-11-18T06:18:57;99041.16;;;8.14;69.46
550;BME280;20066;48.764;9.176;2023-11-18T06:21:26;99034.75;;;7.87;69.76
550;BME280;20066;48.764;9.176;2023-11-18T06:23:57;99027.47;;;7.72;70.29
550;BME280;20066;48.764;9.176;2023-11-18T06:26:26;99028.09;;;7.37;72.26
550;BME280;20066;48.764;9.176;2023-11-18T06:28:55;99034.03;;;7.31;72.08
550;BME280;20066;48.764;9.176;2023-11-18T06:31:23;99035.81;;;6.87;74.66
550;BME280;20066;48.764;9.176;2023-11-18T06:33:51;99046.50;;;7.27;73.09
550;BME280;20066;48.764;9.176;2023-11-18T06:36:22;99056.84;;;7.01;74.19
550;BME280;20066;48.764;9.176;2023-11-18T06:38:53;99063.06;;;7.17;73.57
550;BME280;20066;48.764;9.176;2023-11-18T06:41:23;99072.41;;;7.23;72.40
550;BME280;20066;48.764;9.176;2023-11-18T06:43:53;99071.00;;;6.89;74.58
550;BME280;20066;48.764;9.176;2023-11-18T06:46:28;99070.84;;;7.10;72.86
550;BME280;20066;48.764;9.176;2023-11-18T06:48:58;99072.13;;;7.00;73.48
550;BME280;20066;48.764;9.176;2023-11-18T06:51:32;99065.06;;;7.48;71.38
550;BME280;20066;48.764;9.176;2023-11-18T06:54:05;99072.59;;;7.30;72.72
550;BME280;20066;48.764;9.176;2023-11-18T06:56:37;99058.53;;;6.93;73.62
550;BME280;20066;48.764;9.176;2023-11-18T06:59:06;99058.38;;;7.42;72.81
550;BME280;20066;48.764;9.176;2023-11-18T07:01:34;99053.97;;;7.33;72.20
550;BME280;20066;48.764;9.176;2023-11-18T07:04:03;99051.13;;;7.42;72.27
550;BME280;20066;48.764;9.176;2023-11-18T07:06:37;99056.28;;;7.07;73.20
550;BME280;20066;48.764;9.176;2023-11-18T07:09:06;99051.19;;;7.30;73.27
550;BME280;20066;48.764;9.176;2023-11-18T07:11:40;99052.03;;;7.90;70.85
550;BME280;20066;48.764;9.176;2023-11-18T07:14:09;99055.75;;;7.57;71.02
550;BME280;20066;48.764;9.176;2023-11-18T07:16:39;99063.44;;;7.87;70.62
550;BME280;20066;48.764;9.176;2023-11-18T07:19:07;99054.41;;;8.23;69.58
550;BME280;20066;48.764;9.176;2023-11-18T07:21:40;99078.06;;;8.21;68.36
550;BME280;20066;48.764;9.176;2023-11-18T07:24:09;99077.72;;;8.22;68.44
550;BME280;20066;48.764;9.176;2023-11-18T07:26:37;99074.19;;;8.34;68.47
550;BME280;20066;48.764;9.176;2023-11-18T07:29:05;99088.66;;;7.86;69.63
550;BME280;20066;48.764;9.176;2023-11-18T07:31:34;99090.91;;;7.84;70.01
550;BME280;20066;48.764;9.176;2023-11-18T07:34:03;99090.47;;;7.54;71.32
550;BME280;20066;48.764;9.176;2023-11-18T07:36:34;99081.63;;;8.40;68.21
550;BME280;20066;48.764;9.176;2023-11-18T07:39:05;99077.03;;;7.38;71.18
550;BME280;20066;48.764;9.176;2023-11-18T07:41:42;99083.66;;;7.56;70.38
550;BME280;20066;48.764;9.176;2023-11-18T07:44:11;99074.69;;;7.64;70.62
550;BME280;20066;48.764;9.176;2023-11-18T07:46:40;99062.75;;;7.90;70.31
550;BME280;20066;48.764;9.176;2023-11-18T07:49:09;99072.19;;;7.71;69.89
550;BME280;20066;48.764;9.176;2023-11-18T07:51:38;99064.94;;;7.16;71.83
550;BME280;20066;48.764;9.176;2023-11-18T07:54:08;99064.88;;;7.01;73.53
550;BME280;20066;48.764;9.176;2023-11-18T07:56:37;99055.06;;;6.80;73.44
550;BME280;20066;48.764;9.176;2023-11-18T07:59:06;99046.94;;;6.89;73.68
550;BME280;20066;48.764;9.176;2023-11-18T08:01:35;99052.03;;;7.06;72.40
550;BME280;20066;48.764;9.176;2023-11-18T08:04:03;99072.81;;;7.81;70.10
550;BME280;20066;48.764;9.176;2023-11-18T08:06:34;99070.59;;;8.93;66.39
550;BME280;20066;48.764;9.176;2023-11-18T08:09:02;99067.59;;;8.63;66.97
550;BME280;20066;48.764;9.176;2023-11-18T08:11:31;99086.53;;;9.59;63.58
550;BME280;20066;48.764;9.176;2023-11-18T08:14:00;99071.25;;;9.05;64.74
550;BME280;20066;48.764;9.176;2023-11-18T08:16:29;99057.28;;;7.70;69.33
550;BME280;20066;48.764;9.176;2023-11-18T08:18:59;99058.97;;;8.38;67.82
550;BME280;20066;48.764;9.176;2023-11-18T08:21:28;99073.75;;;8.79;67.05
550;BME280;20066;48.764;9.176;2023-11-18T08:23:57;99081.44;;;8.02;68.89
550;BME280;20066;48.764;9.176;2023-11-18T08:26:26;99083.53;;;8.24;68.29
550;BME280;20066;48.764;9.176;2023-11-18T08:28:56;99074.78;;;8.43;67.65
550;BME280;20066;48.764;9.176;2023-11-18T08:31:24;99072.91;;;9.10;65.56
550;BME280;20066;48.764;9.176;2023-11-18T08:33:52;99075.19;;;9.46;64.45
550;BME280;20066;48.764;9.176;2023-11-18T08:36:21;99077.91;;;9.69;63.98
550;BME280;20066;48.764;9.176;2023-11-18T08:38:49;99069.00;;;9.07;65.33
550;BME280;20066;48.764;9.176;2023-11-18T08:41:17;99077.28;;;8.83;66.62
550;BME280;20066;48.764;9.176;2023-11-18T08:43:46;99072.19;;;8.78;66.30
550;BME280;20066;48.764;9.176;2023-11-18T08:46:17;99074.38;;;9.07;65.68
550;BME280;20066;48.764;9.176;2023-11-18T08:48:45;99072.63;;;9.34;64.75
550;BME280;20066;48.764;9.176;2023-11-18T08:51:14;99075.72;;;9.36;64.54
550;BME280;20066;48.764;9.176;2023-11-18T08:53:43;99076.34;;;8.44;67.09
550;BME280;20066;48.764;9.176;2023-11-18T08:56:12;99082.28;;;9.58;64.09
550;BME280;20066;48.764;9.176;2023-11-18T08:58:42;99076.53;;;9.98;63.15
550;BME280;20066;48.764;9.176;2023-11-18T09:01:11;99066.56;;;10.21;61.62
550;BME280;20066;48.764;9.176;2023-11-18T09:03:43;99050.91;;;9.04;64.71
550;BME280;20066;48.764;9.176;2023-11-18T09:06:15;99042.84;;;9.04;64.19
550;BME280;20066;48.764;9.176;2023-11-18T09:08:53;99055.22;;;9.86;61.30
550;BME280;20066;48.764;9.176;2023-11-18T09:11:22;99053.63;;;10.50;60.63
550;BME280;20066;48.764;9.176;2023-11-18T09:13:53;99056.63;;;9.80;61.67
550;BME280;20066;48.764;9.176;2023-11-18T09:16:27;99056.16;;;9.55;62.78
550;BME280;20066;48.764;9.176;2023-11-18T09:18:58;99062.06;;;9.83;62.22
550;BME280;20066;48.764;9.176;2023-11-18T09:21:29;99060.22;;;11.38;57.96
550;BME280;20066;48.764;9.176;2023-11-18T09:24:02;99063.25;;;8.89;64.00
550;BME280;20066;48.764;9.176;2023-11-18T09:26:32;99066.06;;;9.51;63.08
550;BME280;20066;48.764;9.176;2023-11-18T09:29:00;99063.53;;;9.39;62.98
550;BME280;20066;48.764;9.176;2023-11-18T09:31:29;99068.72;;;10.12;60.71
550;BME280;20066;48.764;9.176;2023-11-18T09:34:01;99055.53;;;9.23;62.08
550;BME280;20066;48.764;9.176;2023-11-18T09:36:32;99062.16;;;10.10;60.29
550;BME280;20066;48.764;9.176;2023-11-18T09:39:02;99059.41;;;9.64;61.01
550;BME280;20066;48.764;9.176;2023-11-18T09:41:30;99058.84;;;9.16;62.37
550;BME280;20066;48.764;9.176;2023-11-18T09:44:01;99051.97;;;9.57;61.78
550;BME280;20066;48.764;9.176;2023-11-18T09:46:33;99063.28;;;9.09;62.53
550;BME280;20066;48.764;9.176;2023-11-18T09:49:14;99069.59;;;9.97;60.09
550;BME280;20066;48.764;9.176;2023-11-18T09:51:45;99064.19;;;8.97;63.11
550;BME280;20066;48.764;9.176;2023-11-18T09:54:19;99047.81;;;9.02;62.52
550;BME280;20066;48.764;9.176;2023-11-18T09:56:56;99053.06;;;9.34;62.08
550;BME280;20066;48.764;9.176;2023-11-18T09:59:42;99040.34;;;8.61;64.89
550;BME280;20066;48.764;9.176;2023-11-18T10:02:12;99037.19;;;8.71;63.22
550;BME280;20066;48.764;9.176;2023-11-18T10:04:42;99044.00;;;9.42;62.38
550;BME280;20066;48.764;9.176;2023-11-18T10:07:13;99052.19;;;10.56;59.14
550;BME280;20066;48.764;9.176;2023-11-18T10:09:43;99043.16;;;9.38;60.69
550;BME280;20066;48.764;9.176;2023-11-18T10:12:12;99049.06;;;9.66;61.80
550;BME280;20066;48.764;9.176;2023-11-18T10:14:43;99040.66;;;8.90;62.95
550;BME280;20066;48.764;9.176;2023-11-18T10:17:11;99041.97;;;9.35;61.99
550;BME280;20066;48.764;9.176;2023-11-18T10:22:24;99046.28;;;10.73;58.63
550;BME280;20066;48.764;9.176;2023-11-18T10:24:54;99039.03;;;11.07;57.26
550;BME280;20066;48.764;9.176;2023-11-18T10:27:23;99033.06;;;10.91;57.22
550;BME280;20066;48.764;9.176;2023-11-18T10:29:56;99032.25;;;10.34;57.71
550;BME280;20066;48.764;9.176;2023-11-18T10:32:24;99038.94;;;11.00;57.76
550;BME280;20066;48.764;9.176;2023-11-18T10:34:57;99042.97;;;11.43;56.50
550;BME280;20066;48.764;9.176;2023-11-18T10:37:26;99045.97;;;11.38;56.72
550;BME280;20066;48.764;9.176;2023-11-18T10:40:03;99045.47;;;10.99;58.03
550;BME280;20066;48.764;9.176;2023-11-18T10:42:32;99050.16;;;12.02;55.36
550;BME280;20066;48.764;9.176;2023-11-18T10:45:04;99056.00;;;10.09;58.83
550;BME280;20066;48.764;9.176;2023-11-18T10:47:32;99061.09;;;10.37;58.34
550;BME280;20066;48.764;9.176;2023-11-18T10:50:04;99046.94;;;9.75;61.68
550;BME280;20066;48.764;9.176;2023-11-18T10:52:36;99038.16;;;10.96;58.52
550;BME280;20066;48.764;9.176;2023-11-18T10:55:08;99034.66;;;11.58;57.02
550;BME280;20066;48.764;9.176;2023-11-18T10:57:40;99023.72;;;10.81;58.31
550;BME280;20066;48.764;9.176;2023-11-18T11:00:11;99031.06;;;11.47;57.34
550;BME280;20066;48.764;9.176;2023-11-18T11:02:41;99020.72;;;11.49;57.58
550;BME280;20066;48.764;9.176;2023-11-18T11:05:11;99012.94;;;11.44;56.96
550;BME280;20066;48.764;9.176;2023-11-18T11:07:48;99003.81;;;9.87;61.38
550;BME280;20066;48.764;9.176;2023-11-18T11:10:17;99009.69;;;11.28;58.64
550;BME280;20066;48.764;9.176;2023-11-18T11:12:55;99021.09;;;10.35;59.10
550;BME280;20066;48.764;9.176;2023-11-18T11:15:29;99014.63;;;11.22;57.55
550;BME280;20066;48.764;9.176;2023-11-18T11:18:18;99009.88;;;11.46;57.52
550;BME280;20066;48.764;9.176;2023-11-18T11:20:57;99018.34;;;11.44;56.74
550;BME280;20066;48.764;9.176;2023-11-18T11:23:35;99023.44;;;11.90;56.42
550;BME280;20066;48.764;9.176;2023-11-18T11:26:22;99027.75;;;11.28;57.86
550;BME280;20066;48.764;9.176;2023-11-18T11:29:00;99020.38;;;9.70;61.08
550;BME280;20066;48.764;9.176;2023-11-18T11:31:35;99008.88;;;9.69;62.73
550;BME280;20066;48.764;9.176;2023-11-18T11:34:09;99012.03;;;9.98;61.74
550;BME280;20066;48.764;9.176;2023-11-18T11:36:46;99009.06;;;9.80;62.52
550;BME280;20066;48.764;9.176;2023-11-18T11:39:17;98999.00;;;9.54;61.19
550;BME280;20066;48.764;9.176;2023-11-18T11:41:53;98999.81;;;9.78;61.58
550;BME280;20066;48.764;9.176;2023-11-18T11:44:24;99002.97;;;9.83;62.01
550;BME280;20066;48.764;9.176;2023-11-18T11:46:57;98996.03;;;10.28;61.46
550;BME280;20066;48.764;9.176;2023-11-18T11:49:33;98987.47;;;10.45;60.21
550;BME280;20066;48.764;9.176;2023-11-18T11:52:10;98978.47;;;10.34;60.88
550;BME280;20066;48.764;9.176;2023-11-18T11:54:46;98973.84;;;9.43;63.02
550;BME280;20066;48.764;9.176;2023-11-18T11:57:17;98968.47;;;9.43;63.70
550;BME280;20066;48.764;9.176;2023-11-18T11:59:54;98962.84;;;9.48;64.17
550;BME280;20066;48.764;9.176;2023-11-18T12:02:24;98964.16;;;10.03;62.01
550;BME280;20066;48.764;9.176;2023-11-18T12:04:56;98952.75;;;9.87;62.62
550;BME280;20066;48.764;9.176;2023-11-18T12:07:27;98950.41;;;10.61;59.22
550;BME280;20066;48.764;9.176;2023-11-18T12:09:56;98952.28;;;11.20;58.33
550;BME280;20066;48.764;9.176;2023-11-18T12:12:25;98949.97;;;12.00;55.89
550;BME280;20066;48.764;9.176;2023-11-18T12:14:54;98951.50;;;11.97;56.00
550;BME280;20066;48.764;9.176;2023-11-18T12:17:25;98945.63;;;10.77;57.96
550;BME280;20066;48.764;9.176;2023-11-18T12:19:59;98933.81;;;11.19;58.40
550;BME280;20066;48.764;9.176;2023-11-18T12:23:03;98924.88;;;9.95;60.49
550;BME280;20066;48.764;9.176;2023-11-18T12:25:32;98908.81;;;9.76;60.92
550;BME280;20066;48.764;9.176;2023-11-18T12:28:10;98910.25;;;9.70;60.83
550;BME280;20066;48.764;9.176;2023-11-18T12:30:40;98903.16;;;10.94;58.41
550;BME280;20066;48.764;9.176;2023-11-18T12:33:19;98896.78;;;10.19;60.05
550;BME280;20066;48.764;9.176;2023-11-18T12:39:26;98891.22;;;9.79;60.20
550;BME280;20066;48.764;9.176;2023-11-18T12:42:04;98886.31;;;9.61;61.15
550;BME280;20066;48.764;9.176;2023-11-18T12:45:03;98875.19;;;10.12;59.49
550;BME280;20066;48.764;9.176;2023-11-18T12:47:42;98879.91;;;9.92;59.04
550;BME280;20066;48.764;9.176;2023-11-18T12:50:11;98882.59;;;9.92;59.33
550;BME280;20066;48.764;9.176;2023-11-18T12:52:51;98877.53;;;9.87;59.53
550;BME280;20066;48.764;9.176;2023-11-18T12:55:21;98889.59;;;9.51;60.37
550;BME280;20066;48.764;9.176;2023-11-18T12:57:49;98881.38;;;10.72;57.37
550;BME280;20066;48.764;9.176;2023-11-18T13:00:18;98868.44;;;9.95;59.26
550;BME280;20066;48.764;9.176;2023-11-18T13:02:53;98867.75;;;10.28;58.50
550;BME280;20066;48.764;9.176;2023-11-18T13:05:22;98867.34;;;10.00;58.54
550;BME280;20066;48.764;9.176;2023-11-18T13:07:50;98866.13;;;10.24;58.20
550;BME280;20066;48.764;9.176;2023-11-18T13:10:18;98868.78;;;10.47;57.21
550;BME280;20066;48.764;9.176;2023-11-18T13:12:50;98874.31;;;10.04;58.78
550;BME280;20066;48.764;9.176;2023-11-18T13:15:19;98889.63;;;10.00;59.11
550;BME280;20066;48.764;9.176;2023-11-18T13:17:58;98866.69;;;9.35;60.63
550;BME280;20066;48.764;9.176;2023-11-18T13:20:27;98857.22;;;9.18;61.35
550;BME280;20066;48.764;9.176;2023-11-18T13:22:56;98866.94;;;9.49;61.36
550;BME280;20066;48.764;9.176;2023-11-18T13:25:24;98855.19;;;9.57;60.95
550;BME280;20066;48.764;9.176;2023-11-18T13:27:54;98851.28;;;10.03;60.51
550;BME280;20066;48.764;9.176;2023-11-18T13:30:22;98847.78;;;9.50;61.55
550;BME280;20066;48.764;9.176;2023-11-18T13:32:51;98856.16;;;9.98;60.93
550;BME280;20066;48.764;9.176;2023-11-18T13:35:19;98848.63;;;9.81;61.73
550;BME280;20066;48.764;9.176;2023-11-18T13:37:50;98848.75;;;9.88;61.04
550;BME280;20066;48.764;9.176;2023-11-18T13:40:20;98838.63;;;9.78;61.96
550;BME280;20066;48.764;9.176;2023-11-18T13:43:02;98832.31;;;9.93;62.03
550;BME280;20066;48.764;9.176;2023-11-18T13:45:31;98824.88;;;9.83;61.80
550;BME280;20066;48.764;9.176;2023-11-18T13:48:05;98814.56;;;9.88;60.99
550;BME280;20066;48.764;9.176;2023-11-18T13:50:35;98820.50;;;8.80;65.43
550;BME280;20066;48.764;9.176;2023-11-18T13:53:04;98806.72;;;8.81;64.87
550;BME280;20066;48.764;9.176;2023-11-18T13:55:32;98800.56;;;9.72;62.90